sensor_id;sensor_type;location;lat;lon;timestamp;temperature;humidity
17066;DHT22;23120;52.336;21.182;2023-05-08T00:01:25;4.20;70.20
17066;DHT22;23120;52.336;21.182;2023-05-08T00:03:52;4.10;70.50
17066;DHT22;23120;52.336;21.182;2023-05-08T00:06:19;4.10;70.90
17066;DHT22;23120;52.336;21.182;2023-05-08T00:08:47;4.00;70.70
17066;DHT22;23120;52.336;21.182;2023-05-08T00:11:14;4.00;70.60
17066;DHT22;23120;52.336;21.182;2023-05-08T00:13:41;3.90;71.00
17066;DHT22;23120;52.336;21.182;2023-05-08T00:16:08;3.90;70.90
17066;DHT22;23120;52.336;21.182;2023-05-08T00:18:36;3.90;70.80
17066;DHT22;23120;52.336;21.182;2023-05-08T00:21:03;3.80;70.80
17066;DHT22;23120;52.336;21.182;2023-05-08T00:23:30;3.80;71.60
17066;DHT22;23120;52.336;21.182;2023-05-08T00:25:59;3.70;71.00
17066;DHT22;23120;52.336;21.182;2023-05-08T00:28:26;3.70;71.40
17066;DHT22;23120;52.336;21.182;2023-05-08T00:30:53;3.70;71.20
17066;DHT22;23120;52.336;21.182;2023-05-08T00:33:20;3.60;71.90
17066;DHT22;23120;52.336;21.182;2023-05-08T00:35:47;3.60;71.50
17066;DHT22;23120;52.336;21.182;2023-05-08T00:38:14;3.50;71.70
17066;DHT22;23120;52.336;21.182;2023-05-08T00:40:41;3.50;71.50
17066;DHT22;23120;52.336;21.182;2023-05-08T00:43:09;3.50;71.40
17066;DHT22;23120;52.336;21.182;2023-05-08T00:45:38;3.40;71.40
17066;DHT22;23120;52.336;21.182;2023-05-08T00:48:06;3.40;71.50
17066;DHT22;23120;52.336;21.182;2023-05-08T00:50:34;3.40;71.50
17066;DHT22;23120;52.336;21.182;2023-05-08T00:53:03;3.30;71.50
17066;DHT22;23120;52.336;21.182;2023-05-08T00:55:31;3.30;71.80
17066;DHT22;23120;52.336;21.182;2023-05-08T00:57:59;3.20;71.70
17066;DHT22;23120;52.336;21.182;2023-05-08T01:00:28;3.20;72.00
17066;DHT22;23120;52.336;21.182;2023-05-08T01:02:55;3.20;71.80
17066;DHT22;23120;52.336;21.182;2023-05-08T01:05:22;3.10;72.00
17066;DHT22;23120;52.336;21.182;2023-05-08T01:07:49;3.20;71.80
17066;DHT22;23120;52.336;21.182;2023-05-08T01:10:16;3.10;72.10
17066;DHT22;23120;52.336;21.182;2023-05-08T01:12:51;3.00;72.00
17066;DHT22;23120;52.336;21.182;2023-05-08T01:15:25;3.00;72.20
17066;DHT22;23120;52.336;21.182;2023-05-08T01:18:01;3.00;72.30
17066;DHT22;23120;52.336;21.182;2023-05-08T01:20:37;3.00;72.40
17066;DHT22;23120;52.336;21.182;2023-05-08T01:23:26;2.90;72.90
17066;DHT22;23120;52.336;21.182;2023-05-08T01:29:49;2.80;72.80
17066;DHT22;23120;52.336;21.182;2023-05-08T01:32:24;2.80;72.90
17066;DHT22;23120;52.336;21.182;2023-05-08T01:34:59;2.80;72.60
17066;DHT22;23120;52.336;21.182;2023-05-08T01:37:34;2.70;72.80
17066;DHT22;23120;52.336;21.182;2023-05-08T01:40:10;2.70;73.10
17066;DHT22;23120;52.336;21.182;2023-05-08T01:42:47;2.70;73.10
17066;DHT22;23120;52.336;21.182;2023-05-08T01:45:20;2.60;73.10
17066;DHT22;23120;52.336;21.182;2023-05-08T01:47:56;2.60;73.10
17066;DHT22;23120;52.336;21.182;2023-05-08T01:50:31;2.60;73.80
17066;DHT22;23120;52.336;21.182;2023-05-08T01:53:04;2.60;73.50
17066;DHT22;23120;52.336;21.182;2023-05-08T01:55:34;2.50;73.60
17066;DHT22;23120;52.336;21.182;2023-05-08T01:58:06;2.50;73.60
17066;DHT22;23120;52.336;21.182;2023-05-08T02:00:36;2.50;73.70
17066;DHT22;23120;52.336;21.182;2023-05-08T02:03:07;2.40;73.50
17066;DHT22;23120;52.336;21.182;2023-05-08T02:05:36;2.40;73.80
17066;DHT22;23120;52.336;21.182;2023-05-08T02:08:04;2.40;73.70
17066;DHT22;23120;52.336;21.182;2023-05-08T02:10:33;2.40;73.90
17066;DHT22;23120;52.336;21.182;2023-05-08T02:13:02;2.30;74.20
17066;DHT22;23120;52.336;21.182;2023-05-08T02:15:30;2.30;74.10
17066;DHT22;23120;52.336;21.182;2023-05-08T02:18:01;2.30;74.70
17066;DHT22;23120;52.336;21.182;2023-05-08T02:20:31;2.30;75.20
17066;DHT22;23120;52.336;21.182;2023-05-08T02:23:00;2.20;74.40
17066;DHT22;23120;52.336;21.182;2023-05-08T02:25:29;2.20;74.40
17066;DHT22;23120;52.336;21.182;2023-05-08T02:27:57;2.20;74.40
17066;DHT22;23120;52.336;21.182;2023-05-08T02:30:25;2.10;74.30
17066;DHT22;23120;52.336;21.182;2023-05-08T02:32:53;2.10;74.30
17066;DHT22;23120;52.336;21.182;2023-05-08T02:35:22;2.10;74.30
17066;DHT22;23120;52.336;21.182;2023-05-08T02:37:54;2.00;74.50
17066;DHT22;23120;52.336;21.182;2023-05-08T02:40:23;2.00;74.50
17066;DHT22;23120;52.336;21.182;2023-05-08T02:42:52;2.00;74.30
17066;DHT22;23120;52.336;21.182;2023-05-08T02:45:21;2.00;74.90
17066;DHT22;23120;52.336;21.182;2023-05-08T02:47:53;1.90;74.60
17066;DHT22;23120;52.336;21.182;2023-05-08T02:50:31;1.90;74.20
17066;DHT22;23120;52.336;21.182;2023-05-08T02:53:06;1.90;74.90
17066;DHT22;23120;52.336;21.182;2023-05-08T02:55:41;1.80;74.90
17066;DHT22;23120;52.336;21.182;2023-05-08T02:58:15;1.80;75.40
17066;DHT22;23120;52.336;21.182;2023-05-08T03:00:47;1.80;75.10
17066;DHT22;23120;52.336;21.182;2023-05-08T03:03:20;1.80;75.30
17066;DHT22;23120;52.336;21.182;2023-05-08T03:05:51;1.70;75.30
17066;DHT22;23120;52.336;21.182;2023-05-08T03:08:24;1.70;75.30
17066;DHT22;23120;52.336;21.182;2023-05-08T03:10:54;1.70;75.30
17066;DHT22;23120;52.336;21.182;2023-05-08T03:13:22;1.70;75.60
17066;DHT22;23120;52.336;21.182;2023-05-08T03:15:53;1.60;75.80
17066;DHT22;23120;52.336;21.182;2023-05-08T03:18:27;1.60;75.90
17066;DHT22;23120;52.336;21.182;2023-05-08T03:20:58;1.60;75.70
17066;DHT22;23120;52.336;21.182;2023-05-08T03:23:29;1.60;75.60
17066;DHT22;23120;52.336;21.182;2023-05-08T03:26:00;1.60;75.80
17066;DHT22;23120;52.336;21.182;2023-05-08T03:28:29;1.50;75.80
17066;DHT22;23120;52.336;21.182;2023-05-08T03:30:59;1.50;75.40
17066;DHT22;23120;52.336;21.182;2023-05-08T03:33:28;1.50;75.60
17066;DHT22;23120;52.336;21.182;2023-05-08T03:35:56;1.50;75.70
17066;DHT22;23120;52.336;21.182;2023-05-08T03:38:25;1.50;75.90
17066;DHT22;23120;52.336;21.182;2023-05-08T03:40:54;1.50;76.20
17066;DHT22;23120;52.336;21.182;2023-05-08T03:43:21;1.50;76.40
17066;DHT22;23120;52.336;21.182;2023-05-08T03:45:49;1.50;76.20
17066;DHT22;23120;52.336;21.182;2023-05-08T03:48:17;1.50;76.00
17066;DHT22;23120;52.336;21.182;2023-05-08T03:50:48;1.50;76.30
17066;DHT22;23120;52.336;21.182;2023-05-08T03:53:15;1.50;76.20
17066;DHT22;23120;52.336;21.182;2023-05-08T03:55:42;1.50;76.30
17066;DHT22;23120;52.336;21.182;2023-05-08T03:58:16;1.50;76.20
17066;DHT22;23120;52.336;21.182;2023-05-08T04:00:53;1.60;76.60
17066;DHT22;23120;52.336;21.182;2023-05-08T04:03:30;1.60;76.40
17066;DHT22;23120;52.336;21.182;2023-05-08T04:06:02;1.60;76.50
17066;DHT22;23120;52.336;21.182;2023-05-08T04:08:38;1.60;76.60
17066;DHT22;23120;52.336;21.182;2023-05-08T04:11:14;1.60;76.60
17066;DHT22;23120;52.336;21.182;2023-05-08T04:13:48;1.60;76.60
17066;DHT22;23120;52.336;21.182;2023-05-08T04:16:19;1.60;76.50
17066;DHT22;23120;52.336;21.182;2023-05-08T04:18:49;1.60;76.60
17066;DHT22;23120;52.336;21.182;2023-05-08T04:21:23;1.70;76.80
17066;DHT22;23120;52.336;21.182;2023-05-08T04:23:52;1.70;76.70
17066;DHT22;23120;52.336;21.182;2023-05-08T04:26:22;1.70;76.80
17066;DHT22;23120;52.336;21.182;2023-05-08T04:28:52;1.80;76.80
17066;DHT22;23120;52.336;21.182;2023-05-08T04:31:19;1.80;76.80
17066;DHT22;23120;52.336;21.182;2023-05-08T04:33:48;1.80;77.00
17066;DHT22;23120;52.336;21.182;2023-05-08T04:36:15;1.80;77.10
17066;DHT22;23120;52.336;21.182;2023-05-08T04:38:46;1.80;77.20
17066;DHT22;23120;52.336;21.182;2023-05-08T04:41:13;1.80;77.50
17066;DHT22;23120;52.336;21.182;2023-05-08T04:43:54;1.90;79.10
17066;DHT22;23120;52.336;21.182;2023-05-08T04:46:21;1.90;78.60
17066;DHT22;23120;52.336;21.182;2023-05-08T04:48:50;1.90;79.20
17066;DHT22;23120;52.336;21.182;2023-05-08T04:51:19;2.00;79.30
17066;DHT22;23120;52.336;21.182;2023-05-08T04:53:46;2.00;79.80
17066;DHT22;23120;52.336;21.182;2023-05-08T04:56:13;2.10;80.30
17066;DHT22;23120;52.336;21.182;2023-05-08T04:58:44;2.10;80.30
17066;DHT22;23120;52.336;21.182;2023-05-08T05:01:14;2.20;80.50
17066;DHT22;23120;52.336;21.182;2023-05-08T05:03:46;2.20;80.50
17066;DHT22;23120;52.336;21.182;2023-05-08T05:06:13;2.30;82.10
17066;DHT22;23120;52.336;21.182;2023-05-08T05:08:40;2.50;85.60
17066;DHT22;23120;52.336;21.182;2023-05-08T05:11:06;2.90;85.70
17066;DHT22;23120;52.336;21.182;2023-05-08T05:13:33;3.00;85.40
17066;DHT22;23120;52.336;21.182;2023-05-08T05:16:00;3.30;88.30
17066;DHT22;23120;52.336;21.182;2023-05-08T05:18:29;3.60;88.30
17066;DHT22;23120;52.336;21.182;2023-05-08T05:21:01;3.90;87.30
17066;DHT22;23120;52.336;21.182;2023-05-08T05:23:28;4.10;87.70
17066;DHT22;23120;52.336;21.182;2023-05-08T05:25:56;4.20;87.20
17066;DHT22;23120;52.336;21.182;2023-05-08T05:28:23;4.40;87.00
17066;DHT22;23120;52.336;21.182;2023-05-08T05:30:51;4.60;86.80
17066;DHT22;23120;52.336;21.182;2023-05-08T05:33:18;4.80;86.90
17066;DHT22;23120;52.336;21.182;2023-05-08T05:35:47;5.00;87.90
17066;DHT22;23120;52.336;21.182;2023-05-08T05:38:14;5.20;88.20
17066;DHT22;23120;52.336;21.182;2023-05-08T05:40:41;5.40;88.30
17066;DHT22;23120;52.336;21.182;2023-05-08T05:43:08;5.60;87.80
17066;DHT22;23120;52.336;21.182;2023-05-08T05:45:36;5.80;90.40
17066;DHT22;23120;52.336;21.182;2023-05-08T05:48:05;6.00;89.70
17066;DHT22;23120;52.336;21.182;2023-05-08T05:50:33;6.30;90.50
17066;DHT22;23120;52.336;21.182;2023-05-08T05:53:02;6.50;89.70
17066;DHT22;23120;52.336;21.182;2023-05-08T05:55:29;6.70;90.30
17066;DHT22;23120;52.336;21.182;2023-05-08T05:57:57;6.90;90.00
17066;DHT22;23120;52.336;21.182;2023-05-08T06:00:24;7.20;89.50
17066;DHT22;23120;52.336;21.182;2023-05-08T06:02:54;7.40;89.40
17066;DHT22;23120;52.336;21.182;2023-05-08T06:05:21;7.60;89.60
17066;DHT22;23120;52.336;21.182;2023-05-08T06:07:49;7.80;89.10
17066;DHT22;23120;52.336;21.182;2023-05-08T06:10:17;8.00;89.40
17066;DHT22;23120;52.336;21.182;2023-05-08T06:12:44;8.20;88.90
17066;DHT22;23120;52.336;21.182;2023-05-08T06:15:12;8.40;88.20
17066;DHT22;23120;52.336;21.182;2023-05-08T06:17:41;8.60;87.50
17066;DHT22;23120;52.336;21.182;2023-05-08T06:20:08;8.80;87.40
17066;DHT22;23120;52.336;21.182;2023-05-08T06:22:35;8.90;87.00
17066;DHT22;23120;52.336;21.182;2023-05-08T06:25:04;9.20;86.60
17066;DHT22;23120;52.336;21.182;2023-05-08T06:27:59;9.40;85.40
17066;DHT22;23120;52.336;21.182;2023-05-08T06:30:27;9.50;84.80
17066;DHT22;23120;52.336;21.182;2023-05-08T06:32:54;9.60;84.50
17066;DHT22;23120;52.336;21.182;2023-05-08T06:35:21;9.70;84.40
17066;DHT22;23120;52.336;21.182;2023-05-08T06:37:48;9.80;84.10
17066;DHT22;23120;52.336;21.182;2023-05-08T06:40:15;10.00;82.10
17066;DHT22;23120;52.336;21.182;2023-05-08T06:42:43;10.10;81.70
17066;DHT22;23120;52.336;21.182;2023-05-08T06:45:12;10.20;81.60
17066;DHT22;23120;52.336;21.182;2023-05-08T06:47:39;10.40;81.00
17066;DHT22;23120;52.336;21.182;2023-05-08T06:50:07;10.50;80.50
17066;DHT22;23120;52.336;21.182;2023-05-08T06:52:34;10.60;79.50
17066;DHT22;23120;52.336;21.182;2023-05-08T06:55:01;10.80;78.60
17066;DHT22;23120;52.336;21.182;2023-05-08T06:57:27;10.90;78.40
17066;DHT22;23120;52.336;21.182;2023-05-08T06:59:55;11.00;77.40
17066;DHT22;23120;52.336;21.182;2023-05-08T07:02:23;11.10;77.50
17066;DHT22;23120;52.336;21.182;2023-05-08T07:04:50;11.30;76.50
17066;DHT22;23120;52.336;21.182;2023-05-08T07:07:17;11.40;76.10
17066;DHT22;23120;52.336;21.182;2023-05-08T07:09:44;11.50;75.10
17066;DHT22;23120;52.336;21.182;2023-05-08T07:12:11;11.70;75.20
17066;DHT22;23120;52.336;21.182;2023-05-08T07:14:38;11.80;75.30
17066;DHT22;23120;52.336;21.182;2023-05-08T07:17:04;11.90;74.40
17066;DHT22;23120;52.336;21.182;2023-05-08T07:19:34;12.00;74.00
17066;DHT22;23120;52.336;21.182;2023-05-08T07:22:02;12.20;73.00
17066;DHT22;23120;52.336;21.182;2023-05-08T07:24:29;12.40;72.40
17066;DHT22;23120;52.336;21.182;2023-05-08T07:26:56;12.50;72.70
17066;DHT22;23120;52.336;21.182;2023-05-08T07:29:24;12.60;72.90
17066;DHT22;23120;52.336;21.182;2023-05-08T07:32:00;12.70;72.60
17066;DHT22;23120;52.336;21.182;2023-05-08T07:34:27;12.80;72.00
17066;DHT22;23120;52.336;21.182;2023-05-08T07:36:55;12.90;71.00
17066;DHT22;23120;52.336;21.182;2023-05-08T07:39:27;13.00;70.60
17066;DHT22;23120;52.336;21.182;2023-05-08T07:41:54;13.10;70.60
17066;DHT22;23120;52.336;21.182;2023-05-08T07:44:21;13.20;69.40
17066;DHT22;23120;52.336;21.182;2023-05-08T07:46:48;13.40;69.70
17066;DHT22;23120;52.336;21.182;2023-05-08T07:49:15;13.50;69.70
17066;DHT22;23120;52.336;21.182;2023-05-08T07:51:42;13.60;69.10
17066;DHT22;23120;52.336;21.182;2023-05-08T07:54:10;13.80;67.40
17066;DHT22;23120;52.336;21.182;2023-05-08T07:56:37;13.90;66.40
17066;DHT22;23120;52.336;21.182;2023-05-08T07:59:04;14.10;62.60
17066;DHT22;23120;52.336;21.182;2023-05-08T08:01:31;14.20;64.70
17066;DHT22;23120;52.336;21.182;2023-05-08T08:03:57;14.30;64.40
17066;DHT22;23120;52.336;21.182;2023-05-08T08:06:25;14.30;64.60
17066;DHT22;23120;52.336;21.182;2023-05-08T08:08:52;14.40;65.30
17066;DHT22;23120;52.336;21.182;2023-05-08T08:11:20;14.50;64.40
17066;DHT22;23120;52.336;21.182;2023-05-08T08:13:47;14.60;63.90
17066;DHT22;23120;52.336;21.182;2023-05-08T08:16:14;14.70;65.00
17066;DHT22;23120;52.336;21.182;2023-05-08T08:18:41;14.70;64.90
17066;DHT22;23120;52.336;21.182;2023-05-08T08:21:07;14.80;65.10
17066;DHT22;23120;52.336;21.182;2023-05-08T08:23:35;15.00;63.80
17066;DHT22;23120;52.336;21.182;2023-05-08T08:26:03;15.00;63.70
17066;DHT22;23120;52.336;21.182;2023-05-08T08:28:31;15.20;61.50
17066;DHT22;23120;52.336;21.182;2023-05-08T08:31:12;15.20;59.60
17066;DHT22;23120;52.336;21.182;2023-05-08T08:33:41;15.40;60.80
17066;DHT22;23120;52.336;21.182;2023-05-08T08:36:12;15.50;60.40
17066;DHT22;23120;52.336;21.182;2023-05-08T08:38:39;15.60;60.60
17066;DHT22;23120;52.336;21.182;2023-05-08T08:41:07;15.70;60.50
17066;DHT22;23120;52.336;21.182;2023-05-08T08:43:45;15.80;59.80
17066;DHT22;23120;52.336;21.182;2023-05-08T08:46:13;16.00;59.40
17066;DHT22;23120;52.336;21.182;2023-05-08T08:48:43;16.10;59.90
17066;DHT22;23120;52.336;21.182;2023-05-08T08:51:17;16.30;60.00
17066;DHT22;23120;52.336;21.182;2023-05-08T08:53:48;16.40;60.20
17066;DHT22;23120;52.336;21.182;2023-05-08T08:56:20;16.50;59.40
17066;DHT22;23120;52.336;21.182;2023-05-08T08:58:55;16.50;59.80
17066;DHT22;23120;52.336;21.182;2023-05-08T09:01:27;16.70;59.80
17066;DHT22;23120;52.336;21.182;2023-05-08T09:03:56;16.70;58.30
17066;DHT22;23120;52.336;21.182;2023-05-08T09:06:24;16.80;53.90
17066;DHT22;23120;52.336;21.182;2023-05-08T09:08:54;16.70;52.10
17066;DHT22;23120;52.336;21.182;2023-05-08T09:11:22;16.70;54.20
17066;DHT22;23120;52.336;21.182;2023-05-08T09:13:53;16.60;54.60
17066;DHT22;23120;52.336;21.182;2023-05-08T09:16:21;16.70;56.20
17066;DHT22;23120;52.336;21.182;2023-05-08T09:18:49;16.70;55.40
17066;DHT22;23120;52.336;21.182;2023-05-08T09:21:16;16.70;55.00
17066;DHT22;23120;52.336;21.182;2023-05-08T09:23:56;16.70;55.20
17066;DHT22;23120;52.336;21.182;2023-05-08T09:26:27;16.70;55.80
17066;DHT22;23120;52.336;21.182;2023-05-08T09:29:12;16.70;54.40
17066;DHT22;23120;52.336;21.182;2023-05-08T09:31:41;16.80;53.50
17066;DHT22;23120;52.336;21.182;2023-05-08T09:34:23;16.80;54.20
17066;DHT22;23120;52.336;21.182;2023-05-08T09:36:51;16.80;51.80
17066;DHT22;23120;52.336;21.182;2023-05-08T09:39:22;16.80;53.90
17066;DHT22;23120;52.336;21.182;2023-05-08T09:41:57;16.80;54.00
17066;DHT22;23120;52.336;21.182;2023-05-08T09:44:26;16.90;53.20
17066;DHT22;23120;52.336;21.182;2023-05-08T09:47:09;16.90;52.90
17066;DHT22;23120;52.336;21.182;2023-05-08T09:49:36;16.90;53.60
17066;DHT22;23120;52.336;21.182;2023-05-08T09:52:04;17.00;52.30
17066;DHT22;23120;52.336;21.182;2023-05-08T09:54:31;17.00;52.50
17066;DHT22;23120;52.336;21.182;2023-05-08T09:56:58;17.10;51.70
17066;DHT22;23120;52.336;21.182;2023-05-08T09:59:28;17.10;52.40
17066;DHT22;23120;52.336;21.182;2023-05-08T10:01:55;17.10;51.70
17066;DHT22;23120;52.336;21.182;2023-05-08T10:04:31;17.20;52.60
17066;DHT22;23120;52.336;21.182;2023-05-08T10:06:59;17.20;52.20
17066;DHT22;23120;52.336;21.182;2023-05-08T10:09:28;17.20;51.70
17066;DHT22;23120;52.336;21.182;2023-05-08T10:11:55;17.30;52.20
17066;DHT22;23120;52.336;21.182;2023-05-08T10:14:22;17.50;53.00
17066;DHT22;23120;52.336;21.182;2023-05-08T10:16:52;17.60;51.80
17066;DHT22;23120;52.336;21.182;2023-05-08T10:19:22;17.70;52.00
17066;DHT22;23120;52.336;21.182;2023-05-08T10:21:50;17.90;52.20
17066;DHT22;23120;52.336;21.182;2023-05-08T10:24:18;18.20;52.00
17066;DHT22;23120;52.336;21.182;2023-05-08T10:26:54;18.30;50.90
17066;DHT22;23120;52.336;21.182;2023-05-08T10:29:30;18.50;50.00
17066;DHT22;23120;52.336;21.182;2023-05-08T10:31:59;18.70;50.70
17066;DHT22;23120;52.336;21.182;2023-05-08T10:34:33;18.90;50.40
17066;DHT22;23120;52.336;21.182;2023-05-08T10:37:01;19.00;51.10
17066;DHT22;23120;52.336;21.182;2023-05-08T10:39:29;19.10;51.60
17066;DHT22;23120;52.336;21.182;2023-05-08T10:41:57;19.10;48.00
17066;DHT22;23120;52.336;21.182;2023-05-08T10:44:26;19.00;48.40
17066;DHT22;23120;52.336;21.182;2023-05-08T10:46:58;19.10;49.10
17066;DHT22;23120;52.336;21.182;2023-05-08T10:49:37;19.10;47.50
17066;DHT22;23120;52.336;21.182;2023-05-08T10:52:11;19.20;47.20
17066;DHT22;23120;52.336;21.182;2023-05-08T10:54:50;19.20;48.60
17066;DHT22;23120;52.336;21.182;2023-05-08T10:57:29;19.30;48.10
17066;DHT22;23120;52.336;21.182;2023-05-08T10:59:56;19.20;48.00
17066;DHT22;23120;52.336;21.182;2023-05-08T11:02:25;19.20;47.20
17066;DHT22;23120;52.336;21.182;2023-05-08T11:05:13;19.20;48.50
17066;DHT22;23120;52.336;21.182;2023-05-08T11:07:52;19.30;49.00
17066;DHT22;23120;52.336;21.182;2023-05-08T11:10:19;19.40;47.40
17066;DHT22;23120;52.336;21.182;2023-05-08T11:12:49;19.50;48.80
17066;DHT22;23120;52.336;21.182;2023-05-08T11:15:34;19.60;48.90
17066;DHT22;23120;52.336;21.182;2023-05-08T11:18:02;19.60;48.30
17066;DHT22;23120;52.336;21.182;2023-05-08T11:20:40;19.70;46.20
17066;DHT22;23120;52.336;21.182;2023-05-08T11:23:20;19.70;48.10
17066;DHT22;23120;52.336;21.182;2023-05-08T11:25:47;19.70;47.20
17066;DHT22;23120;52.336;21.182;2023-05-08T11:28:24;19.70;47.20
17066;DHT22;23120;52.336;21.182;2023-05-08T11:30:52;19.80;48.00
17066;DHT22;23120;52.336;21.182;2023-05-08T11:33:20;19.90;48.20
17066;DHT22;23120;52.336;21.182;2023-05-08T11:35:51;19.90;48.30
17066;DHT22;23120;52.336;21.182;2023-05-08T11:38:26;19.90;48.30
17066;DHT22;23120;52.336;21.182;2023-05-08T11:40:56;19.90;47.10
17066;DHT22;23120;52.336;21.182;2023-05-08T11:43:49;19.80;46.00
17066;DHT22;23120;52.336;21.182;2023-05-08T11:46:29;19.90;47.30
17066;DHT22;23120;52.336;21.182;2023-05-08T11:49:09;19.90;47.20
17066;DHT22;23120;52.336;21.182;2023-05-08T11:51:38;19.90;47.30
17066;DHT22;23120;52.336;21.182;2023-05-08T11:54:11;19.90;47.50
17066;DHT22;23120;52.336;21.182;2023-05-08T11:56:47;19.90;47.80
17066;DHT22;23120;52.336;21.182;2023-05-08T11:59:19;19.90;47.00
17066;DHT22;23120;52.336;21.182;2023-05-08T12:01:47;19.80;47.50
17066;DHT22;23120;52.336;21.182;2023-05-08T12:04:17;19.80;46.00
17066;DHT22;23120;52.336;21.182;2023-05-08T12:06:46;19.80;46.50
17066;DHT22;23120;52.336;21.182;2023-05-08T12:09:17;19.60;47.10
17066;DHT22;23120;52.336;21.182;2023-05-08T12:11:45;19.70;47.20
17066;DHT22;23120;52.336;21.182;2023-05-08T12:14:16;19.70;46.30
17066;DHT22;23120;52.336;21.182;2023-05-08T12:16:43;19.70;45.90
17066;DHT22;23120;52.336;21.182;2023-05-08T12:19:11;19.70;47.30
17066;DHT22;23120;52.336;21.182;2023-05-08T12:21:38;19.90;47.50
17066;DHT22;23120;52.336;21.182;2023-05-08T12:24:10;20.00;48.30
17066;DHT22;23120;52.336;21.182;2023-05-08T12:26:39;20.10;48.00
17066;DHT22;23120;52.336;21.182;2023-05-08T12:29:06;20.20;45.90
17066;DHT22;23120;52.336;21.182;2023-05-08T12:31:35;20.30;46.40
17066;DHT22;23120;52.336;21.182;2023-05-08T12:34:02;20.40;47.80
17066;DHT22;23120;52.336;21.182;2023-05-08T12:36:32;20.60;48.40
17066;DHT22;23120;52.336;21.182;2023-05-08T12:41:41;21.00;48.10
17066;DHT22;23120;52.336;21.182;2023-05-08T12:44:16;21.20;48.90
17066;DHT22;23120;52.336;21.182;2023-05-08T12:46:51;21.40;49.10
17066;DHT22;23120;52.336;21.182;2023-05-08T12:49:37;21.60;49.20
17066;DHT22;23120;52.336;21.182;2023-05-08T12:52:13;21.90;48.50
17066;DHT22;23120;52.336;21.182;2023-05-08T12:55:09;22.00;47.80
17066;DHT22;23120;52.336;21.182;2023-05-08T12:58:03;22.20;48.40
17066;DHT22;23120;52.336;21.182;2023-05-08T13:00:34;22.50;48.70
17066;DHT22;23120;52.336;21.182;2023-05-08T13:03:07;22.50;47.30
17066;DHT22;23120;52.336;21.182;2023-05-08T13:05:43;22.60;46.30
17066;DHT22;23120;52.336;21.182;2023-05-08T13:08:12;22.50;46.10
17066;DHT22;23120;52.336;21.182;2023-05-08T13:10:45;22.50;46.50
17066;DHT22;23120;52.336;21.182;2023-05-08T13:13:13;22.30;46.80
17066;DHT22;23120;52.336;21.182;2023-05-08T13:15:42;22.40;47.00
17066;DHT22;23120;52.336;21.182;2023-05-08T13:18:11;22.40;47.40
17066;DHT22;23120;52.336;21.182;2023-05-08T13:20:42;22.50;47.40
17066;DHT22;23120;52.336;21.182;2023-05-08T13:23:10;22.50;46.40
17066;DHT22;23120;52.336;21.182;2023-05-08T13:25:37;22.40;45.70
17066;DHT22;23120;52.336;21.182;2023-05-08T13:28:07;22.40;45.80
17066;DHT22;23120;52.336;21.182;2023-05-08T13:30:36;22.40;46.40
17066;DHT22;23120;52.336;21.182;2023-05-08T13:33:06;22.40;46.10
17066;DHT22;23120;52.336;21.182;2023-05-08T13:35:33;22.30;46.80
17066;DHT22;23120;52.336;21.182;2023-05-08T13:38:00;22.30;46.40
17066;DHT22;23120;52.336;21.182;2023-05-08T13:40:27;22.30;46.40
17066;DHT22;23120;52.336;21.182;2023-05-08T13:42:55;22.40;46.70
17066;DHT22;23120;52.336;21.182;2023-05-08T13:45:23;22.40;45.00
17066;DHT22;23120;52.336;21.182;2023-05-08T13:47:52;22.50;45.30
17066;DHT22;23120;52.336;21.182;2023-05-08T13:50:19;22.60;45.50
17066;DHT22;23120;52.336;21.182;2023-05-08T13:52:47;22.80;43.90
17066;DHT22;23120;52.336;21.182;2023-05-08T13:55:26;22.90;45.30
17066;DHT22;23120;52.336;21.182;2023-05-08T13:57:53;23.10;45.00
17066;DHT22;23120;52.336;21.182;2023-05-08T14:00:20;23.40;45.60
17066;DHT22;23120;52.336;21.182;2023-05-08T14:02:48;23.40;43.40
17066;DHT22;23120;52.336;21.182;2023-05-08T14:05:15;23.60;45.40
17066;DHT22;23120;52.336;21.182;2023-05-08T14:07:42;23.90;46.60
17066;DHT22;23120;52.336;21.182;2023-05-08T14:10:09;24.20;46.90
17066;DHT22;23120;52.336;21.182;2023-05-08T14:12:36;24.30;44.50
17066;DHT22;23120;52.336;21.182;2023-05-08T14:15:05;24.60;44.90
17066;DHT22;23120;52.336;21.182;2023-05-08T14:17:32;24.70;45.20
17066;DHT22;23120;52.336;21.182;2023-05-08T14:20:01;24.80;44.60
17066;DHT22;23120;52.336;21.182;2023-05-08T14:22:29;24.90;41.60
17066;DHT22;23120;52.336;21.182;2023-05-08T14:24:56;24.90;43.70
17066;DHT22;23120;52.336;21.182;2023-05-08T14:27:24;25.00;43.00
17066;DHT22;23120;52.336;21.182;2023-05-08T14:29:50;25.20;42.00
17066;DHT22;23120;52.336;21.182;2023-05-08T14:32:18;25.20;42.60
17066;DHT22;23120;52.336;21.182;2023-05-08T14:34:45;25.30;42.50
17066;DHT22;23120;52.336;21.182;2023-05-08T14:37:16;25.40;41.80
17066;DHT22;23120;52.336;21.182;2023-05-08T14:39:43;25.60;43.10
17066;DHT22;23120;52.336;21.182;2023-05-08T14:42:10;25.90;42.90
17066;DHT22;23120;52.336;21.182;2023-05-08T14:44:37;25.90;42.70
17066;DHT22;23120;52.336;21.182;2023-05-08T14:47:04;25.90;42.80
17066;DHT22;23120;52.336;21.182;2023-05-08T14:49:31;25.90;43.60
17066;DHT22;23120;52.336;21.182;2023-05-08T14:51:58;26.00;41.40
17066;DHT22;23120;52.336;21.182;2023-05-08T14:54:26;25.90;41.60
17066;DHT22;23120;52.336;21.182;2023-05-08T14:56:53;25.60;39.00
17066;DHT22;23120;52.336;21.182;2023-05-08T14:59:20;25.20;36.60
17066;DHT22;23120;52.336;21.182;2023-05-08T15:01:47;24.90;41.00
17066;DHT22;23120;52.336;21.182;2023-05-08T15:04:14;25.00;42.20
17066;DHT22;23120;52.336;21.182;2023-05-08T15:06:40;24.80;41.70
17066;DHT22;23120;52.336;21.182;2023-05-08T15:09:08;24.80;43.00
17066;DHT22;23120;52.336;21.182;2023-05-08T15:11:36;24.60;42.80
17066;DHT22;23120;52.336;21.182;2023-05-08T15:14:04;24.40;42.10
17066;DHT22;23120;52.336;21.182;2023-05-08T15:16:31;24.20;42.40
17066;DHT22;23120;52.336;21.182;2023-05-08T15:18:58;23.50;38.80
17066;DHT22;23120;52.336;21.182;2023-05-08T15:21:25;23.40;38.30
17066;DHT22;23120;52.336;21.182;2023-05-08T15:23:52;23.50;37.90
17066;DHT22;23120;52.336;21.182;2023-05-08T15:26:19;23.40;38.60
17066;DHT22;23120;52.336;21.182;2023-05-08T15:28:48;23.30;38.90
17066;DHT22;23120;52.336;21.182;2023-05-08T15:31:15;23.30;40.00
17066;DHT22;23120;52.336;21.182;2023-05-08T15:33:42;23.40;39.10
17066;DHT22;23120;52.336;21.182;2023-05-08T15:36:11;23.60;41.50
17066;DHT22;23120;52.336;21.182;2023-05-08T15:38:38;23.80;41.70
17066;DHT22;23120;52.336;21.182;2023-05-08T15:41:05;23.90;41.80
17066;DHT22;23120;52.336;21.182;2023-05-08T15:43:32;24.20;40.80
17066;DHT22;23120;52.336;21.182;2023-05-08T15:46:00;24.30;40.70